createdAt,value
2023-10-07T00:00:16.760Z,0
2023-10-07T00:01:18.350Z,0
2023-10-07T00:02:19.799Z,0
2023-10-07T00:03:22.896Z,0
2023-10-07T00:04:24.273Z,0
2023-10-07T00:05:25.665Z,0
2023-10-07T00:06:28.867Z,0
2023-10-07T00:07:31.809Z,0
2023-10-07T00:08:34.903Z,0
2023-10-07T00:09:37.911Z,0
2023-10-07T00:10:39.696Z,0
2023-10-07T00:11:41.141Z,0
2023-10-07T00:12:44.148Z,0
2023-10-07T00:13:45.627Z,0
2023-10-07T00:14:48.617Z,0
2023-10-07T00:15:50.075Z,0
2023-10-07T00:16:53.131Z,0
2023-10-07T00:17:54.550Z,0
2023-10-07T00:18:57.543Z,0
2023-10-07T00:19:58.996Z,0
2023-10-07T00:21:02.029Z,0
2023-10-07T00:22:05.036Z,0
2023-10-07T00:23:06.508Z,0
2023-10-07T00:24:09.790Z,0
2023-10-07T00:25:11.316Z,0
2023-10-07T00:26:12.718Z,0
2023-10-07T00:27:14.116Z,0
2023-10-07T00:28:17.167Z,0
2023-10-07T00:29:18.573Z,0
2023-10-07T00:30:21.579Z,0
2023-10-07T00:31:24.610Z,0
2023-10-07T00:32:26.110Z,0
2023-10-07T00:33:27.655Z,0
2023-10-07T00:34:29.174Z,0
2023-10-07T00:35:30.582Z,0
2023-10-07T00:36:33.660Z,0
2023-10-07T00:37:36.718Z,0
2023-10-07T00:38:38.161Z,0
2023-10-07T00:39:41.213Z,0
2023-10-07T00:40:44.273Z,0
2023-10-07T00:41:47.365Z,0
2023-10-07T00:42:50.417Z,0
2023-10-07T00:43:53.474Z,0
2023-10-07T00:44:54.932Z,0
2023-10-07T00:45:56.418Z,0
2023-10-07T00:46:57.864Z,0
2023-10-07T00:48:00.894Z,0
2023-10-07T00:49:02.332Z,0
2023-10-07T00:50:05.360Z,0
2023-10-07T00:51:08.367Z,0
2023-10-07T00:52:09.820Z,0
2023-10-07T00:53:11.313Z,0
2023-10-07T00:54:14.332Z,0
2023-10-07T00:55:17.404Z,0
2023-10-07T00:56:20.378Z,0
2023-10-07T00:57:23.379Z,0
2023-10-07T00:58:24.816Z,0
2023-10-07T00:59:26.230Z,0
2023-10-07T01:00:27.640Z,0
2023-10-07T01:01:29.087Z,0
2023-10-07T01:02:32.452Z,0
2023-10-07T01:03:35.659Z,0
2023-10-07T01:04:38.726Z,0
2023-10-07T01:05:40.287Z,0
2023-10-07T01:06:41.726Z,0
2023-10-07T01:07:43.140Z,0
2023-10-07T01:08:44.532Z,0
2023-10-07T01:09:47.532Z,0
2023-10-07T01:10:48.965Z,0
2023-10-07T01:11:51.934Z,0
2023-10-07T01:14:10.571Z,0
2023-10-07T01:15:12.100Z,0
2023-10-07T01:16:13.549Z,0
2023-10-07T01:17:15.066Z,0
2023-10-07T01:18:16.560Z,0
2023-10-07T01:19:17.952Z,0
2023-10-07T01:20:19.421Z,0
2023-10-07T01:21:20.881Z,0
2023-10-07T01:22:22.282Z,0
2023-10-07T01:23:23.749Z,0
2023-10-07T01:24:25.140Z,0
2023-10-07T01:25:26.597Z,0
2023-10-07T01:26:27.996Z,0
2023-10-07T01:27:29.377Z,0
2023-10-07T01:28:30.798Z,0
2023-10-07T01:29:32.175Z,0
2023-10-07T01:30:33.570Z,0
2023-10-07T01:31:34.978Z,0
2023-10-07T01:32:36.424Z,0
2023-10-07T01:33:37.817Z,0
2023-10-07T01:34:39.242Z,0
2023-10-07T01:35:40.636Z,0
2023-10-07T01:36:42.020Z,0
2023-10-07T01:37:56.072Z,0
2023-10-07T01:38:57.522Z,0
2023-10-07T01:39:58.917Z,0
2023-10-07T01:41:00.338Z,0
2023-10-07T01:42:01.762Z,0
2023-10-07T01:43:03.155Z,0
2023-10-07T01:44:04.558Z,0
2023-10-07T01:45:05.998Z,0
2023-10-07T01:46:07.380Z,0
2023-10-07T01:47:08.968Z,0
2023-10-07T01:48:10.391Z,0
2023-10-07T01:49:11.769Z,0
2023-10-07T01:50:13.177Z,0
2023-10-07T01:51:14.557Z,0
2023-10-07T01:52:15.959Z,0
2023-10-07T01:53:17.352Z,0
2023-10-07T01:54:18.793Z,0
2023-10-07T01:55:20.185Z,0
2023-10-07T01:56:21.576Z,0
2023-10-07T01:57:22.964Z,0
2023-10-07T01:58:24.358Z,0
2023-10-07T02:00:02.362Z,0
2023-10-07T02:01:03.750Z,0
2023-10-07T02:02:05.163Z,0
2023-10-07T02:03:06.594Z,0
2023-10-07T02:04:08.170Z,0
2023-10-07T02:05:09.728Z,0
2023-10-07T02:06:11.144Z,0
2023-10-07T02:07:12.534Z,0
2023-10-07T02:08:13.930Z,0
2023-10-07T02:09:15.372Z,0
2023-10-07T02:10:16.762Z,0
2023-10-07T02:11:18.152Z,0
2023-10-07T02:12:19.658Z,0
2023-10-07T02:14:22.571Z,0
2023-10-07T02:15:23.975Z,0
2023-10-07T02:16:25.409Z,0
2023-10-07T02:17:27.234Z,0
2023-10-07T02:18:29.316Z,0
2023-10-07T02:19:31.493Z,0
2023-10-07T02:20:32.932Z,0
2023-10-07T02:21:34.587Z,0
2023-10-07T02:25:51.515Z,0
2023-10-07T02:26:52.952Z,0
2023-10-07T02:27:54.347Z,0
2023-10-07T02:28:55.751Z,0
2023-10-07T02:29:57.151Z,0
2023-10-07T02:30:58.569Z,0
2023-10-07T02:32:52.626Z,0
2023-10-07T02:50:01.327Z,0
2023-10-07T02:51:02.834Z,0
2023-10-07T02:52:04.273Z,0
2023-10-07T02:53:05.755Z,0
2023-10-07T02:54:07.148Z,0
2023-10-07T02:55:08.708Z,0
2023-10-07T02:56:10.154Z,0
2023-10-07T02:57:11.527Z,0
2023-10-07T02:58:12.914Z,0
2023-10-07T03:06:47.551Z,0
2023-10-07T03:07:49.028Z,0
2023-10-07T03:08:50.463Z,0
2023-10-07T03:09:51.894Z,0
2023-10-07T03:10:53.336Z,0
2023-10-07T03:11:54.734Z,0
2023-10-07T03:12:56.136Z,0
2023-10-07T03:13:57.558Z,0
2023-10-07T03:15:00.582Z,0
2023-10-07T03:16:01.363Z,0
2023-10-07T03:17:02.811Z,0
2023-10-07T03:18:04.268Z,0
2023-10-07T03:19:05.714Z,0
2023-10-07T03:20:07.159Z,0
2023-10-07T03:21:08.579Z,0
2023-10-07T03:22:09.996Z,0
2023-10-07T03:23:11.426Z,0
2023-10-07T03:24:13.491Z,0
2023-10-07T03:25:15.233Z,0
2023-10-07T03:28:56.153Z,0
2023-10-07T03:29:57.882Z,0
2023-10-07T03:30:59.336Z,0
2023-10-07T03:32:00.788Z,0
2023-10-07T03:33:02.204Z,0
2023-10-07T03:34:03.606Z,0
2023-10-07T03:35:05.047Z,0
2023-10-07T03:36:06.460Z,0
2023-10-07T03:37:07.852Z,0
2023-10-07T03:38:09.359Z,0
2023-10-07T03:39:10.839Z,0
2023-10-07T03:40:12.222Z,0
2023-10-07T03:41:13.652Z,0
2023-10-07T03:42:15.105Z,0
2023-10-07T03:43:16.506Z,0
2023-10-07T03:44:17.966Z,0
2023-10-07T03:45:19.414Z,0
2023-10-07T03:46:20.829Z,0
2023-10-07T03:47:22.319Z,0
2023-10-07T03:48:23.739Z,0
2023-10-07T03:49:25.117Z,0
2023-10-07T03:50:26.521Z,0
2023-10-07T03:51:27.910Z,0
2023-10-07T03:52:29.708Z,0
2023-10-07T03:53:31.118Z,0
2023-10-07T03:54:32.515Z,0
2023-10-07T03:55:34.127Z,0
2023-10-07T03:56:35.557Z,0
2023-10-07T03:57:36.948Z,0
2023-10-07T03:58:38.426Z,0
2023-10-07T03:59:39.881Z,0
2023-10-07T04:00:41.327Z,0
2023-10-07T04:01:42.852Z,0
2023-10-07T04:02:44.384Z,0
2023-10-07T04:03:45.826Z,0
2023-10-07T04:04:47.258Z,0
2023-10-07T04:05:48.647Z,0
2023-10-07T04:06:50.030Z,0
2023-10-07T04:07:51.431Z,0
2023-10-07T04:08:52.815Z,0
2023-10-07T04:09:54.203Z,0
2023-10-07T04:10:55.649Z,0
2023-10-07T04:11:57.093Z,0
2023-10-07T04:12:58.492Z,0
2023-10-07T04:13:59.923Z,0
2023-10-07T04:15:01.335Z,0
2023-10-07T04:16:02.771Z,0
2023-10-07T04:17:04.305Z,0
2023-10-07T04:18:05.849Z,0
2023-10-07T04:19:07.235Z,0
2023-10-07T04:20:08.697Z,0
2023-10-07T04:21:10.111Z,0
2023-10-07T04:22:11.504Z,0
2023-10-07T04:23:12.935Z,0
2023-10-07T04:24:14.408Z,0
2023-10-07T04:25:15.834Z,0
2023-10-07T04:26:17.242Z,0
2023-10-07T04:27:18.661Z,0
2023-10-07T04:28:20.058Z,0
2023-10-07T04:29:21.530Z,0
2023-10-07T04:30:23.002Z,0
2023-10-07T04:31:24.515Z,0
2023-10-07T04:32:26.112Z,0
2023-10-07T04:33:27.643Z,0
2023-10-07T04:34:29.117Z,0
2023-10-07T04:35:30.515Z,0
2023-10-07T04:36:34.024Z,0
2023-10-07T04:37:34.350Z,0
2023-10-07T04:38:35.740Z,0
2023-10-07T04:39:37.137Z,0
2023-10-07T04:40:38.567Z,0
2023-10-07T04:41:39.947Z,0
2023-10-07T04:42:41.338Z,0
2023-10-07T04:43:42.818Z,0
2023-10-07T04:44:44.244Z,0
2023-10-07T04:45:45.661Z,0
2023-10-07T04:46:47.061Z,0
2023-10-07T04:47:48.477Z,0
2023-10-07T04:48:49.873Z,0
2023-10-07T04:49:51.271Z,0
2023-10-07T04:50:52.665Z,0
2023-10-07T04:51:54.054Z,0
2023-10-07T04:52:55.472Z,0
2023-10-07T04:53:56.872Z,0
2023-10-07T04:54:58.356Z,0
2023-10-07T04:55:59.774Z,0
2023-10-07T04:57:01.311Z,0
2023-10-07T04:58:02.708Z,0
2023-10-07T04:59:04.118Z,0
2023-10-07T05:00:05.542Z,0
2023-10-07T05:01:06.989Z,0
2023-10-07T05:02:08.464Z,0
2023-10-07T05:03:09.934Z,0
2023-10-07T05:04:12.267Z,0
2023-10-07T05:05:12.788Z,0
2023-10-07T05:06:14.186Z,0
2023-10-07T05:07:15.634Z,0
2023-10-07T05:08:17.105Z,0
2023-10-07T05:09:18.471Z,0
2023-10-07T05:10:19.862Z,0
2023-10-07T05:11:21.262Z,0
2023-10-07T05:12:22.677Z,0
2023-10-07T05:15:38.287Z,0
2023-10-07T05:16:39.816Z,0
2023-10-07T05:17:41.405Z,0
2023-10-07T05:18:42.831Z,0
2023-10-07T05:19:44.351Z,0
2023-10-07T05:20:45.753Z,0
2023-10-07T05:21:47.156Z,0
2023-10-07T05:22:48.596Z,0
2023-10-07T05:23:50.024Z,0
2023-10-07T05:24:51.523Z,0
2023-10-07T05:25:52.928Z,0
2023-10-07T05:26:54.321Z,0
2023-10-07T05:27:55.714Z,0
2023-10-07T05:28:57.152Z,0
2023-10-07T05:29:58.557Z,0
2023-10-07T05:31:00.079Z,0
2023-10-07T05:32:01.623Z,0
2023-10-07T05:33:03.234Z,0
2023-10-07T05:34:04.620Z,0
2023-10-07T05:35:06.125Z,0
2023-10-07T05:36:07.543Z,0
2023-10-07T05:37:08.931Z,0
2023-10-07T05:38:10.357Z,0
2023-10-07T05:39:11.744Z,0
2023-10-07T05:40:13.139Z,0
2023-10-07T05:41:14.693Z,0
2023-10-07T05:42:16.185Z,0
2023-10-07T05:43:17.566Z,0
2023-10-07T05:44:18.975Z,0
2023-10-07T05:45:20.406Z,0
2023-10-07T05:46:21.840Z,0
2023-10-07T05:47:23.287Z,0
2023-10-07T05:48:24.690Z,0
2023-10-07T05:49:26.105Z,0
2023-10-07T05:50:27.495Z,0
2023-10-07T05:51:28.885Z,0
2023-10-07T05:52:30.278Z,0
2023-10-07T05:53:31.675Z,0
2023-10-07T05:54:33.132Z,0
2023-10-07T05:55:34.527Z,0
2023-10-07T05:56:36.008Z,0
2023-10-07T05:57:37.404Z,0
2023-10-07T05:58:38.873Z,0
2023-10-07T05:59:40.288Z,0
2023-10-07T06:00:41.690Z,0
2023-10-07T06:01:43.211Z,0
2023-10-07T06:02:44.946Z,0
2023-10-07T06:03:46.415Z,0
2023-10-07T06:04:47.809Z,0
2023-10-07T06:05:49.194Z,0
2023-10-07T06:06:50.586Z,0
2023-10-07T06:07:52.007Z,0
2023-10-07T06:08:53.426Z,0
2023-10-07T06:09:54.808Z,0
2023-10-07T06:10:56.208Z,0
2023-10-07T06:11:57.847Z,0
2023-10-07T06:12:59.211Z,0
2023-10-07T06:14:00.721Z,0
2023-10-07T06:15:02.062Z,0
2023-10-07T06:16:03.499Z,0
2023-10-07T06:17:04.994Z,0
2023-10-07T06:18:06.433Z,0
2023-10-07T06:19:07.848Z,0
2023-10-07T06:20:09.258Z,0
2023-10-07T06:21:10.653Z,0
2023-10-07T06:22:12.109Z,0
2023-10-07T06:23:13.556Z,0
2023-10-07T06:24:14.974Z,0
2023-10-07T06:25:16.369Z,0
2023-10-07T06:26:17.903Z,0
2023-10-07T06:27:19.340Z,0
2023-10-07T06:28:20.729Z,0
2023-10-07T06:29:22.173Z,0
2023-10-07T06:30:23.585Z,0
2023-10-07T06:31:25.095Z,0
2023-10-07T06:32:26.595Z,0
2023-10-07T06:33:28.036Z,0
2023-10-07T06:34:29.424Z,0
2023-10-07T06:35:30.864Z,0
2023-10-07T06:36:32.281Z,0
2023-10-07T06:37:33.688Z,0
2023-10-07T06:38:35.333Z,0
2023-10-07T06:39:36.808Z,0
2023-10-07T06:40:38.188Z,0
2023-10-07T06:41:39.761Z,0
2023-10-07T06:42:41.216Z,0
2023-10-07T06:43:42.678Z,0
2023-10-07T06:44:44.075Z,0
2023-10-07T06:45:45.593Z,0
2023-10-07T06:46:47.048Z,0
2023-10-07T06:47:48.558Z,0
2023-10-07T06:48:50.289Z,0
2023-10-07T06:49:51.821Z,0
2023-10-07T06:50:53.226Z,0
2023-10-07T06:51:54.816Z,0
2023-10-07T06:52:56.403Z,0
2023-10-07T06:53:57.783Z,0
2023-10-07T06:55:07.840Z,0
2023-10-07T06:56:01.593Z,0
2023-10-07T06:57:03.125Z,0
2023-10-07T06:58:04.549Z,0
2023-10-07T06:59:06.021Z,0
2023-10-07T07:00:07.465Z,0
2023-10-07T07:01:08.914Z,0
2023-10-07T07:02:10.331Z,0
2023-10-07T07:03:11.848Z,0
2023-10-07T07:04:13.808Z,0
2023-10-07T07:05:14.823Z,0
2023-10-07T07:06:16.295Z,0
2023-10-07T07:07:17.842Z,0
2023-10-07T07:08:19.276Z,0
2023-10-07T07:09:20.667Z,0
2023-10-07T07:10:22.073Z,0
2023-10-07T07:11:23.473Z,0
2023-10-07T07:12:24.868Z,0
2023-10-07T07:14:41.688Z,0
2023-10-07T07:15:43.261Z,0
2023-10-07T07:16:44.822Z,0
2023-10-07T07:17:46.234Z,0
2023-10-07T07:18:47.633Z,0
2023-10-07T07:19:49.032Z,0
2023-10-07T07:20:50.569Z,0
2023-10-07T07:21:52.113Z,0
2023-10-07T07:22:53.573Z,0
2023-10-07T07:23:54.997Z,0
2023-10-07T07:24:56.386Z,0
2023-10-07T07:25:57.838Z,0
2023-10-07T07:26:59.262Z,0
2023-10-07T07:28:00.652Z,0
2023-10-07T07:29:02.082Z,0
2023-10-07T07:30:03.496Z,0
2023-10-07T07:31:04.930Z,0
2023-10-07T07:32:06.337Z,0
2023-10-07T07:33:08.000Z,0
2023-10-07T07:34:09.183Z,0
2023-10-07T07:35:10.590Z,0
2023-10-07T07:36:12.033Z,0
2023-10-07T07:37:13.635Z,4
2023-10-07T07:38:15.096Z,8
2023-10-07T07:39:16.479Z,8
2023-10-07T07:40:17.875Z,8
2023-10-07T07:41:19.311Z,8
2023-10-07T07:42:20.701Z,8
2023-10-07T07:43:22.102Z,4
2023-10-07T07:44:23.521Z,4
2023-10-07T07:45:24.942Z,4
2023-10-07T07:46:26.359Z,4
2023-10-07T07:47:27.905Z,4
2023-10-07T07:48:29.594Z,4
2023-10-07T07:49:31.049Z,4
2023-10-07T07:50:32.459Z,8
2023-10-07T07:51:33.837Z,8
2023-10-07T07:52:35.240Z,8
2023-10-07T07:53:36.940Z,8
2023-10-07T07:54:38.375Z,8
2023-10-07T07:55:39.800Z,8
2023-10-07T07:56:41.188Z,8
2023-10-07T07:57:42.587Z,8
2023-10-07T07:58:44.008Z,8
2023-10-07T07:59:45.388Z,4
2023-10-07T08:00:46.784Z,4
2023-10-07T08:01:50.764Z,4
2023-10-07T08:02:50.675Z,4
2023-10-07T08:03:52.298Z,8
2023-10-07T08:04:54.114Z,8
2023-10-07T08:05:55.610Z,8
2023-10-07T08:06:57.045Z,8
2023-10-07T08:07:58.485Z,8
2023-10-07T08:08:59.913Z,8
2023-10-07T08:10:01.308Z,8
2023-10-07T08:11:02.720Z,8
2023-10-07T08:12:04.113Z,8
2023-10-07T08:13:05.513Z,8
2023-10-07T08:14:06.986Z,8
2023-10-07T08:15:08.397Z,8
2023-10-07T08:16:09.808Z,8
2023-10-07T08:17:11.314Z,8
2023-10-07T08:18:12.813Z,8
2023-10-07T08:19:14.274Z,8
2023-10-07T08:20:15.693Z,8
2023-10-07T08:21:17.169Z,8
2023-10-07T08:22:18.623Z,8
2023-10-07T08:23:20.051Z,8
2023-10-07T08:24:21.465Z,8
2023-10-07T08:25:22.927Z,8
2023-10-07T08:26:24.411Z,8
2023-10-07T08:27:25.807Z,8
2023-10-07T08:28:27.205Z,8
2023-10-07T08:29:28.593Z,8
2023-10-07T08:30:30.034Z,8
2023-10-07T08:31:31.459Z,8
2023-10-07T08:32:32.926Z,8
2023-10-07T08:33:34.473Z,8
2023-10-07T08:34:38.129Z,8
2023-10-07T08:35:38.292Z,8
2023-10-07T08:36:39.680Z,8
2023-10-07T08:37:41.101Z,12
2023-10-07T08:38:42.516Z,12
2023-10-07T08:39:43.920Z,12
2023-10-07T08:40:45.430Z,12
2023-10-07T08:41:46.828Z,12
2023-10-07T08:42:48.227Z,8
2023-10-07T08:43:49.642Z,8
2023-10-07T08:44:51.030Z,8
2023-10-07T08:45:52.432Z,8
2023-10-07T08:46:53.924Z,12
2023-10-07T08:47:55.603Z,12
2023-10-07T08:48:57.060Z,8
2023-10-07T08:49:58.489Z,8
2023-10-07T08:50:59.878Z,12
2023-10-07T08:52:01.268Z,12
2023-10-07T08:53:02.862Z,12
2023-10-07T08:54:04.265Z,12
2023-10-07T08:55:05.766Z,12
2023-10-07T08:56:07.243Z,8
2023-10-07T08:57:08.658Z,8
2023-10-07T08:58:10.110Z,4
2023-10-07T08:59:11.529Z,8
2023-10-07T09:00:12.911Z,4
2023-10-07T09:01:14.337Z,8
2023-10-07T09:02:15.850Z,8
2023-10-07T09:03:17.335Z,12
2023-10-07T09:04:18.841Z,12
2023-10-07T09:05:20.346Z,12
2023-10-07T09:06:21.789Z,12
2023-10-07T09:07:23.199Z,12
2023-10-07T09:08:24.631Z,12
2023-10-07T09:09:26.042Z,16
2023-10-07T09:10:27.459Z,12
2023-10-07T09:11:28.868Z,16
2023-10-07T09:12:30.259Z,12
2023-10-07T09:13:31.655Z,12
2023-10-07T09:14:33.106Z,16
2023-10-07T09:15:34.513Z,16
2023-10-07T09:16:35.986Z,16
2023-10-07T09:17:37.526Z,16
2023-10-07T09:18:38.889Z,12
2023-10-07T09:19:40.310Z,16
2023-10-07T09:20:41.688Z,16
2023-10-07T09:21:43.084Z,12
2023-10-07T09:22:44.531Z,16
2023-10-07T09:23:45.916Z,20
2023-10-07T09:24:47.304Z,20
2023-10-07T09:25:48.754Z,16
2023-10-07T09:26:50.167Z,16
2023-10-07T09:27:51.619Z,16
2023-10-07T09:28:53.065Z,20
2023-10-07T09:29:54.497Z,16
2023-10-07T09:30:55.900Z,20
2023-10-07T09:31:57.428Z,20
2023-10-07T09:32:59.165Z,20
2023-10-07T09:34:00.270Z,20
2023-10-07T09:35:01.668Z,20
2023-10-07T09:36:03.051Z,24
2023-10-07T09:37:04.451Z,20
2023-10-07T09:38:05.940Z,20
2023-10-07T09:39:07.379Z,20
2023-10-07T09:40:08.770Z,12
2023-10-07T09:41:10.235Z,16
2023-10-07T09:42:37.876Z,16
2023-10-07T09:43:39.360Z,20
2023-10-07T09:44:40.810Z,16
2023-10-07T09:45:42.238Z,12
2023-10-07T09:46:43.683Z,12
2023-10-07T09:47:45.233Z,12
2023-10-07T09:48:46.803Z,12
2023-10-07T09:49:48.234Z,12
2023-10-07T09:50:49.699Z,12
2023-10-07T09:51:51.100Z,12
2023-10-07T09:52:52.639Z,12
2023-10-07T09:53:54.105Z,12
2023-10-07T09:54:55.544Z,12
2023-10-07T09:55:56.986Z,20
2023-10-07T09:56:58.425Z,12
2023-10-07T09:57:59.832Z,24
2023-10-07T09:59:01.401Z,20
2023-10-07T10:00:02.975Z,24
2023-10-07T10:01:04.372Z,28
2023-10-07T10:02:05.838Z,28
2023-10-07T10:03:07.375Z,32
2023-10-07T10:04:08.951Z,28
2023-10-07T10:05:10.391Z,28
2023-10-07T10:06:11.804Z,32
2023-10-07T10:07:13.414Z,28
2023-10-07T10:08:14.832Z,32
2023-10-07T10:09:16.316Z,32
2023-10-07T10:10:17.716Z,32
2023-10-07T10:11:19.244Z,32
2023-10-07T10:12:20.668Z,32
2023-10-07T10:13:22.060Z,32
2023-10-07T10:14:23.930Z,32
2023-10-07T10:15:25.343Z,36
2023-10-07T10:16:26.797Z,32
2023-10-07T10:17:28.291Z,32
2023-10-07T10:18:29.708Z,32
2023-10-07T10:19:31.106Z,32
2023-10-07T10:20:32.497Z,32
2023-10-07T10:21:33.902Z,36
2023-10-07T10:22:35.343Z,32
2023-10-07T10:23:36.744Z,36
2023-10-07T10:24:38.195Z,32
2023-10-07T10:25:39.585Z,36
2023-10-07T10:26:40.994Z,32
2023-10-07T10:27:42.383Z,32
2023-10-07T10:28:43.809Z,36
2023-10-07T10:31:00.602Z,36
2023-10-07T10:32:02.065Z,36
2023-10-07T10:33:03.462Z,36
2023-10-07T10:34:04.882Z,36
2023-10-07T10:35:06.400Z,36
2023-10-07T10:36:07.731Z,36
2023-10-07T10:37:09.120Z,36
2023-10-07T10:38:10.596Z,36
2023-10-07T10:39:18.155Z,40
2023-10-07T10:40:15.306Z,40
2023-10-07T10:41:16.738Z,36
2023-10-07T10:42:18.173Z,36
2023-10-07T10:43:19.562Z,40
2023-10-07T10:44:20.978Z,40
2023-10-07T10:45:22.513Z,40
2023-10-07T10:46:23.923Z,40
2023-10-07T10:47:25.381Z,40
2023-10-07T10:48:26.764Z,36
2023-10-07T10:49:28.162Z,36
2023-10-07T10:50:29.560Z,44
2023-10-07T10:51:30.950Z,40
2023-10-07T10:52:33.996Z,36
2023-10-07T10:53:34.850Z,36
2023-10-07T10:54:36.256Z,36
2023-10-07T10:55:37.647Z,36
2023-10-07T10:56:39.045Z,32
2023-10-07T10:57:40.468Z,36
2023-10-07T10:58:41.856Z,32
2023-10-07T10:59:43.311Z,36
2023-10-07T11:00:44.812Z,36
2023-10-07T11:01:46.315Z,36
2023-10-07T11:02:47.918Z,32
2023-10-07T11:03:49.514Z,36
2023-10-07T11:04:51.024Z,36
2023-10-07T11:05:52.576Z,36
2023-10-07T11:06:54.011Z,32
2023-10-07T11:07:55.571Z,32
2023-10-07T11:08:57.047Z,28
2023-10-07T11:09:58.446Z,24
2023-10-07T11:10:59.934Z,24
2023-10-07T11:12:01.432Z,28
2023-10-07T11:13:02.813Z,28
2023-10-07T11:14:04.260Z,32
2023-10-07T11:15:05.672Z,32
2023-10-07T11:16:07.111Z,32
2023-10-07T11:17:08.619Z,32
2023-10-07T11:18:09.979Z,28
2023-10-07T11:19:11.546Z,24
2023-10-07T11:20:13.120Z,28
2023-10-07T11:21:14.509Z,28
2023-10-07T11:22:15.983Z,24
2023-10-07T11:23:17.563Z,24
2023-10-07T11:24:19.001Z,28
2023-10-07T11:25:20.411Z,24
2023-10-07T11:26:21.849Z,24
2023-10-07T11:27:23.225Z,28
2023-10-07T11:28:24.666Z,24
2023-10-07T11:29:26.099Z,24
2023-10-07T11:30:27.805Z,24
2023-10-07T11:31:29.391Z,24
2023-10-07T11:32:31.090Z,24
2023-10-07T11:33:32.900Z,24
2023-10-07T11:34:34.336Z,24
2023-10-07T11:35:35.776Z,24
2023-10-07T11:36:37.301Z,24
2023-10-07T11:37:38.672Z,24
2023-10-07T11:38:40.061Z,20
2023-10-07T11:39:41.470Z,24
2023-10-07T11:40:42.855Z,20
2023-10-07T11:41:44.267Z,20
2023-10-07T11:42:45.649Z,20
2023-10-07T11:43:47.131Z,16
2023-10-07T11:44:48.634Z,16
2023-10-07T11:45:50.068Z,16
2023-10-07T11:46:51.489Z,8
2023-10-07T11:47:52.947Z,12
2023-10-07T11:48:54.355Z,12
2023-10-07T11:49:55.840Z,12
2023-10-07T11:50:57.366Z,12
2023-10-07T11:51:58.777Z,12
2023-10-07T11:53:00.193Z,8
2023-10-07T11:54:01.606Z,12
2023-10-07T11:55:03.077Z,12
2023-10-07T11:56:04.511Z,8
2023-10-07T11:57:05.922Z,12
2023-10-07T11:58:07.317Z,16
2023-10-07T11:59:08.863Z,12
2023-10-07T12:00:10.367Z,12
2023-10-07T12:01:11.774Z,12
2023-10-07T12:02:13.196Z,12
2023-10-07T12:03:14.740Z,12
2023-10-07T12:04:18.110Z,12
2023-10-07T12:05:19.339Z,12
2023-10-07T12:06:20.856Z,12
2023-10-07T12:07:22.356Z,16
2023-10-07T12:08:23.807Z,20
2023-10-07T12:09:25.232Z,16
2023-10-07T12:10:26.618Z,16
2023-10-07T12:11:28.058Z,20
2023-10-07T12:12:29.533Z,16
2023-10-07T12:13:30.924Z,16
2023-10-07T12:14:32.317Z,8
2023-10-07T12:15:33.716Z,8
2023-10-07T12:16:35.121Z,12
2023-10-07T12:17:36.654Z,12
2023-10-07T12:18:38.067Z,12
2023-10-07T12:19:39.848Z,20
2023-10-07T12:20:41.236Z,16
2023-10-07T12:21:42.692Z,16
2023-10-07T12:22:44.097Z,12
2023-10-07T12:23:45.555Z,20
2023-10-07T12:24:46.946Z,16
2023-10-07T12:25:48.359Z,20
2023-10-07T12:26:49.759Z,16
2023-10-07T12:27:51.156Z,20
2023-10-07T12:28:52.583Z,16
2023-10-07T12:29:53.989Z,16
2023-10-07T12:30:55.649Z,16
2023-10-07T12:31:57.293Z,16
2023-10-07T12:32:58.820Z,16
2023-10-07T12:34:00.531Z,16
2023-10-07T12:35:01.975Z,16
2023-10-07T12:36:03.465Z,16
2023-10-07T12:37:04.988Z,16
2023-10-07T12:38:06.532Z,16
2023-10-07T12:39:07.835Z,16
2023-10-07T12:40:09.272Z,12
2023-10-07T12:41:10.741Z,16
2023-10-07T12:42:12.198Z,12
2023-10-07T12:43:13.589Z,8
2023-10-07T12:44:15.174Z,12
2023-10-07T12:45:16.483Z,8
2023-10-07T12:46:17.896Z,8
2023-10-07T12:47:19.354Z,8
2023-10-07T12:48:20.763Z,12
2023-10-07T12:49:22.154Z,12
2023-10-07T12:50:23.660Z,12
2023-10-07T12:51:25.917Z,16
2023-10-07T12:52:27.320Z,16
2023-10-07T12:53:28.825Z,16
2023-10-07T12:54:30.196Z,16
2023-10-07T12:55:31.592Z,20
2023-10-07T12:56:33.016Z,20
2023-10-07T12:57:34.426Z,20
2023-10-07T12:58:35.815Z,12
2023-10-07T12:59:37.272Z,16
2023-10-07T13:00:38.667Z,20
2023-10-07T13:01:40.145Z,20
2023-10-07T13:02:41.848Z,24
2023-10-07T13:03:43.231Z,24
2023-10-07T13:05:29.326Z,28
2023-10-07T13:06:30.733Z,28
2023-10-07T13:07:32.136Z,28
2023-10-07T13:08:33.602Z,28
2023-10-07T13:09:35.003Z,28
2023-10-07T13:10:37.078Z,28
2023-10-07T13:11:39.483Z,28
2023-10-07T13:12:40.861Z,32
2023-10-07T13:13:42.260Z,28
2023-10-07T13:14:43.652Z,28
2023-10-07T13:15:45.091Z,28
2023-10-07T13:16:46.472Z,36
2023-10-07T13:17:48.006Z,32
2023-10-07T13:18:49.426Z,32
2023-10-07T13:19:50.845Z,36
2023-10-07T13:20:52.267Z,36
2023-10-07T13:21:53.759Z,40
2023-10-07T13:22:55.231Z,40
2023-10-07T13:23:56.692Z,44
2023-10-07T13:24:58.087Z,44
2023-10-07T13:25:59.633Z,40
2023-10-07T13:27:01.017Z,44
2023-10-07T13:28:02.893Z,44
2023-10-07T13:29:03.907Z,40
2023-10-07T13:30:05.320Z,44
2023-10-07T13:31:06.727Z,44
2023-10-07T13:32:08.168Z,44
2023-10-07T13:33:09.657Z,44
2023-10-07T13:35:27.384Z,44
2023-10-07T13:36:28.773Z,44
2023-10-07T13:37:30.234Z,44
2023-10-07T13:38:31.661Z,44
2023-10-07T13:39:33.923Z,40
2023-10-07T13:40:36.642Z,40
2023-10-07T13:41:37.749Z,36
2023-10-07T13:42:52.149Z,36
2023-10-07T13:47:10.619Z,32
2023-10-07T13:48:12.206Z,36
2023-10-07T13:49:14.115Z,40
2023-10-07T13:50:15.277Z,36
2023-10-07T13:51:16.691Z,36
2023-10-07T13:52:46.649Z,44
2023-10-07T13:53:48.047Z,44
2023-10-07T13:54:49.448Z,44
2023-10-07T13:55:51.053Z,40
2023-10-07T13:56:55.008Z,24
2023-10-07T13:57:54.984Z,28
2023-10-07T13:58:56.417Z,32
2023-10-07T13:59:57.846Z,20
2023-10-07T14:00:59.269Z,28
2023-10-07T14:02:00.771Z,32
2023-10-07T14:03:02.356Z,36
2023-10-07T14:04:03.972Z,36
2023-10-07T14:05:05.454Z,28
2023-10-07T14:06:07.797Z,28
2023-10-07T14:07:09.199Z,32
2023-10-07T14:08:10.632Z,32
2023-10-07T14:09:12.053Z,28
2023-10-07T14:10:13.538Z,24
2023-10-07T14:11:14.963Z,20
2023-10-07T14:12:16.346Z,20
2023-10-07T14:13:17.745Z,16
2023-10-07T14:14:19.188Z,20
2023-10-07T14:15:20.607Z,20
2023-10-07T14:16:22.092Z,20
2023-10-07T14:17:23.649Z,20
2023-10-07T14:18:38.080Z,20
2023-10-07T14:19:39.501Z,20
2023-10-07T14:20:40.884Z,20
2023-10-07T14:21:42.283Z,16
2023-10-07T14:22:43.678Z,16
2023-10-07T14:23:45.079Z,16
2023-10-07T14:24:46.478Z,12
2023-10-07T14:25:47.935Z,12
2023-10-07T14:28:22.072Z,12
2023-10-07T14:29:23.500Z,12
2023-10-07T14:30:24.916Z,12
2023-10-07T14:31:26.344Z,8
2023-10-07T14:33:43.149Z,12
2023-10-07T14:35:01.129Z,12
2023-10-07T14:36:02.502Z,12
2023-10-07T14:37:28.496Z,16
2023-10-07T14:38:29.968Z,12
2023-10-07T14:39:51.566Z,12
2023-10-07T14:40:33.832Z,12
2023-10-07T14:41:35.254Z,16
2023-10-07T14:42:36.685Z,16
2023-10-07T14:43:38.094Z,12
2023-10-07T14:44:39.597Z,16
2023-10-07T14:45:41.033Z,16
2023-10-07T14:46:42.448Z,16
2023-10-07T14:47:43.910Z,16
2023-10-07T14:48:45.366Z,16
2023-10-07T14:49:46.795Z,12
2023-10-07T14:50:48.236Z,12
2023-10-07T14:51:49.627Z,12
2023-10-07T14:52:51.075Z,12
2023-10-07T14:53:52.593Z,16
2023-10-07T14:54:53.987Z,16
2023-10-07T14:55:55.458Z,12
2023-10-07T14:56:56.824Z,12
2023-10-07T14:57:58.220Z,12
2023-10-07T14:58:59.635Z,16
2023-10-07T15:00:01.068Z,16
2023-10-07T15:01:02.549Z,16
2023-10-07T15:02:04.076Z,16
2023-10-07T15:03:05.705Z,20
2023-10-07T15:04:07.257Z,20
2023-10-07T15:05:08.713Z,24
2023-10-07T15:06:10.127Z,20
2023-10-07T15:07:11.508Z,28
2023-10-07T15:08:13.011Z,24
2023-10-07T15:09:14.381Z,32
2023-10-07T15:10:15.776Z,32
2023-10-07T15:11:17.338Z,32
2023-10-07T15:12:18.827Z,36
2023-10-07T15:13:20.229Z,36
2023-10-07T15:14:21.715Z,36
2023-10-07T15:15:23.131Z,32
2023-10-07T15:16:24.543Z,32
2023-10-07T15:17:25.957Z,32
2023-10-07T15:18:27.370Z,32
2023-10-07T15:19:28.812Z,32
2023-10-07T15:21:45.644Z,36
2023-10-07T15:22:47.033Z,40
2023-10-07T15:23:48.428Z,44
2023-10-07T15:25:03.094Z,40
2023-10-07T15:26:18.400Z,44
2023-10-07T15:27:20.237Z,44
2023-10-07T15:28:21.636Z,44
2023-10-07T15:29:23.102Z,48
2023-10-07T15:30:24.532Z,44
2023-10-07T15:31:25.971Z,44
2023-10-07T15:34:59.107Z,44
2023-10-07T15:37:15.999Z,48
2023-10-07T15:38:17.502Z,48
2023-10-07T15:39:18.912Z,48
2023-10-07T15:40:20.321Z,48
2023-10-07T15:41:21.903Z,48
2023-10-07T15:42:23.432Z,48
2023-10-07T15:43:26.336Z,48
2023-10-07T15:44:27.783Z,48
2023-10-07T15:45:30.134Z,48
2023-10-07T15:46:31.640Z,48
2023-10-07T15:47:33.095Z,44
2023-10-07T15:48:47.120Z,40
2023-10-07T15:49:48.516Z,36